createdAt,value
2019-03-23T00:02:00.721Z,11.70
2019-03-23T00:04:28.968Z,11.97
2019-03-23T00:06:57.270Z,13.23
2019-03-23T00:09:25.730Z,11.23
2019-03-23T00:11:54.035Z,11.77
2019-03-23T00:14:22.401Z,11.03
2019-03-23T00:16:50.686Z,11.57
2019-03-23T00:19:19.098Z,11.30
2019-03-23T00:21:47.306Z,10.80
2019-03-23T00:24:15.492Z,12.67
2019-03-23T00:26:43.778Z,12.23
2019-03-23T00:29:12.186Z,11.93
2019-03-23T00:31:40.577Z,11.20
2019-03-23T00:34:08.834Z,11.20
2019-03-23T00:36:41.344Z,11.27
2019-03-23T00:39:07.295Z,11.23
2019-03-23T00:41:35.815Z,11.83
2019-03-23T00:44:04.427Z,11.63
2019-03-23T00:46:32.897Z,12.80
2019-03-23T00:49:01.134Z,11.17
2019-03-23T00:51:29.565Z,13.90
2019-03-23T00:53:57.996Z,14.07
2019-03-23T00:56:26.284Z,13.10
2019-03-23T00:58:54.612Z,13.23
2019-03-23T01:01:22.931Z,12.03
2019-03-23T01:03:51.186Z,12.87
2019-03-23T01:06:19.580Z,12.27
2019-03-23T01:08:47.941Z,12.20
2019-03-23T01:11:16.315Z,12.53
2019-03-23T01:13:44.689Z,11.73
2019-03-23T01:16:13.161Z,13.60
2019-03-23T01:18:41.511Z,12.90
2019-03-23T01:21:09.855Z,11.10
2019-03-23T01:23:38.135Z,11.90
2019-03-23T01:26:06.451Z,12.27
2019-03-23T01:28:34.680Z,11.97
2019-03-23T01:31:02.956Z,11.43
2019-03-23T01:33:31.246Z,11.13
2019-03-23T01:35:59.508Z,11.20
2019-03-23T01:38:27.806Z,11.37
2019-03-23T01:40:56.040Z,11.40
2019-03-23T01:43:24.235Z,10.63
2019-03-23T01:45:52.514Z,10.30
2019-03-23T01:48:20.822Z,9.90
2019-03-23T01:50:49.148Z,11.20
2019-03-23T01:53:17.442Z,10.77
2019-03-23T01:55:45.751Z,11.57
2019-03-23T01:58:14.429Z,11.20
2019-03-23T02:00:42.668Z,10.93
2019-03-23T02:03:10.847Z,10.53
2019-03-23T02:05:39.161Z,10.83
2019-03-23T02:08:07.411Z,10.40
2019-03-23T02:10:35.731Z,11.47
2019-03-23T02:13:04.032Z,12.00
2019-03-23T02:15:32.257Z,10.30
2019-03-23T02:18:00.500Z,11.00
2019-03-23T02:20:28.826Z,11.30
2019-03-23T02:22:57.108Z,13.23
2019-03-23T02:25:25.351Z,12.47
2019-03-23T02:27:53.711Z,12.77
2019-03-23T02:30:21.996Z,12.80
2019-03-23T02:32:50.274Z,11.80
2019-03-23T02:35:18.561Z,11.63
2019-03-23T02:37:46.802Z,11.67
2019-03-23T02:40:15.093Z,10.67
2019-03-23T02:42:43.343Z,11.17
2019-03-23T02:45:11.963Z,10.70
2019-03-23T02:47:40.227Z,11.30
2019-03-23T02:50:08.649Z,11.70
2019-03-23T02:52:36.906Z,11.17
2019-03-23T02:55:05.774Z,10.73
2019-03-23T02:57:34.047Z,9.83
2019-03-23T03:00:02.330Z,11.50
2019-03-23T03:02:30.810Z,12.40
2019-03-23T03:04:59.078Z,12.50
2019-03-23T03:07:40.780Z,11.33
2019-03-23T03:09:57.361Z,12.63
2019-03-23T03:12:25.648Z,10.50
2019-03-23T03:14:53.940Z,11.30
2019-03-23T03:17:22.195Z,12.00
2019-03-23T03:19:50.715Z,11.07
2019-03-23T03:22:18.948Z,11.70
2019-03-23T03:24:47.157Z,11.70
2019-03-23T03:27:15.430Z,11.37
2019-03-23T03:29:43.676Z,10.67
2019-03-23T03:32:11.875Z,11.13
2019-03-23T03:34:40.135Z,11.63
2019-03-23T03:37:08.428Z,11.33
2019-03-23T03:39:36.686Z,11.80
2019-03-23T03:42:05.338Z,11.37
2019-03-23T03:44:33.641Z,11.47
2019-03-23T03:47:01.822Z,12.17
2019-03-23T03:49:30.001Z,11.53
2019-03-23T03:51:58.275Z,12.60
2019-03-23T03:54:26.560Z,13.40
2019-03-23T03:56:54.851Z,12.87
2019-03-23T03:59:23.122Z,12.70
2019-03-23T04:01:51.361Z,12.13
2019-03-23T04:04:19.574Z,12.27
2019-03-23T04:06:47.841Z,11.63
2019-03-23T04:09:16.114Z,11.90
2019-03-23T04:11:44.501Z,11.90
2019-03-23T04:14:12.753Z,10.93
2019-03-23T04:16:40.955Z,11.37
2019-03-23T04:19:09.195Z,10.40
2019-03-23T04:21:37.521Z,11.77
2019-03-23T04:24:05.805Z,11.30
2019-03-23T04:26:34.170Z,11.63
2019-03-23T04:29:02.443Z,11.10
2019-03-23T04:31:30.716Z,11.00
2019-03-23T04:33:58.969Z,12.43
2019-03-23T04:36:27.242Z,13.40
2019-03-23T04:38:55.549Z,12.60
2019-03-23T04:41:23.829Z,13.07
2019-03-23T04:43:52.095Z,12.53
2019-03-23T04:46:20.367Z,12.40
2019-03-23T04:48:48.643Z,10.57
2019-03-23T04:51:16.917Z,11.13
2019-03-23T04:53:45.184Z,11.10
2019-03-23T04:56:13.502Z,11.13
2019-03-23T04:58:41.848Z,11.20
2019-03-23T05:01:10.099Z,12.13
2019-03-23T05:03:38.418Z,11.23
2019-03-23T05:06:06.677Z,12.30
2019-03-23T05:08:34.936Z,12.73
2019-03-23T05:11:04.267Z,11.80
2019-03-23T05:13:32.505Z,11.83
2019-03-23T05:16:00.693Z,10.53
2019-03-23T05:18:28.961Z,10.57
2019-03-23T05:20:57.219Z,11.97
2019-03-23T05:23:25.539Z,10.90
2019-03-23T05:25:53.809Z,11.40
2019-03-23T05:28:22.067Z,11.30
2019-03-23T05:30:50.273Z,11.07
2019-03-23T05:33:18.532Z,13.33
2019-03-23T05:35:46.800Z,13.13
2019-03-23T05:38:14.997Z,11.67
2019-03-23T05:40:43.240Z,12.17
2019-03-23T05:43:11.526Z,12.07
2019-03-23T05:45:39.747Z,11.87
2019-03-23T05:48:08.066Z,13.03
2019-03-23T05:50:36.358Z,13.40
2019-03-23T05:53:04.550Z,12.87
2019-03-23T05:55:32.805Z,12.80
2019-03-23T05:58:01.006Z,12.50
2019-03-23T06:00:29.278Z,12.20
2019-03-23T06:02:57.553Z,11.60
2019-03-23T06:05:25.809Z,11.70
2019-03-23T06:07:54.062Z,13.40
2019-03-23T06:10:23.275Z,14.10
2019-03-23T06:12:51.573Z,14.43
2019-03-23T06:15:19.847Z,14.40
2019-03-23T06:17:48.137Z,16.43
2019-03-23T06:20:16.406Z,17.10
2019-03-23T06:22:44.701Z,16.53
2019-03-23T06:25:13.487Z,16.47
2019-03-23T06:27:41.708Z,17.80
2019-03-23T06:30:10.420Z,18.73
2019-03-23T06:32:38.721Z,16.90
2019-03-23T06:35:07.124Z,15.73
2019-03-23T06:37:35.349Z,16.53
2019-03-23T06:40:04.573Z,15.83
2019-03-23T06:42:32.821Z,16.80
2019-03-23T06:45:00.998Z,15.27
2019-03-23T06:47:29.292Z,15.37
2019-03-23T06:49:57.541Z,15.47
2019-03-23T06:52:25.748Z,15.30
2019-03-23T06:54:53.993Z,14.83
2019-03-23T06:57:22.309Z,15.50
2019-03-23T06:59:50.672Z,15.03
2019-03-23T07:02:18.909Z,16.90
2019-03-23T07:04:47.138Z,16.37
2019-03-23T07:07:15.472Z,15.67
2019-03-23T07:09:43.648Z,15.40
2019-03-23T07:12:11.930Z,15.57
2019-03-23T07:14:40.121Z,14.80
2019-03-23T07:17:08.406Z,14.97
2019-03-23T07:19:36.650Z,14.90
2019-03-23T07:22:04.939Z,15.40
2019-03-23T07:24:33.225Z,14.20
2019-03-23T07:27:01.505Z,14.17
2019-03-23T07:29:29.775Z,13.23
2019-03-23T07:32:05.664Z,14.60
2019-03-23T07:34:28.112Z,14.77
2019-03-23T07:36:56.354Z,14.17
2019-03-23T07:39:28.098Z,16.30
2019-03-23T07:41:54.533Z,17.17
2019-03-23T07:44:22.810Z,18.10
2019-03-23T07:46:51.382Z,18.77
2019-03-23T07:49:19.670Z,15.90
2019-03-23T07:51:47.944Z,16.73
2019-03-23T07:54:16.228Z,17.07
2019-03-23T07:56:44.462Z,16.50
2019-03-23T07:59:12.723Z,16.30
2019-03-23T08:01:41.033Z,16.40
2019-03-23T08:04:09.212Z,17.30
2019-03-23T08:06:37.489Z,14.73
2019-03-23T08:09:06.296Z,15.17
2019-03-23T08:11:34.569Z,14.13
2019-03-23T08:14:02.821Z,14.50
2019-03-23T08:16:31.016Z,15.73
2019-03-23T08:18:59.249Z,14.60
2019-03-23T08:21:27.444Z,15.40
2019-03-23T08:23:55.624Z,15.30
2019-03-23T08:26:23.941Z,15.33
2019-03-23T08:28:52.280Z,14.90
2019-03-23T08:31:20.436Z,14.10
2019-03-23T08:33:48.731Z,15.90
2019-03-23T08:36:16.991Z,15.50
2019-03-23T08:38:45.192Z,14.57
2019-03-23T08:41:14.991Z,15.20
2019-03-23T08:43:43.268Z,14.43
2019-03-23T08:46:12.578Z,15.23
2019-03-23T08:48:40.836Z,15.77
2019-03-23T08:51:09.024Z,16.40
2019-03-23T08:53:37.184Z,15.30
2019-03-23T08:56:05.356Z,14.50
2019-03-23T08:58:32.438Z,15.33
2019-03-23T09:01:00.754Z,16.30
2019-03-23T09:03:29.053Z,16.67
2019-03-23T09:05:57.700Z,16.43
2019-03-23T09:08:25.916Z,16.90
2019-03-23T09:10:54.188Z,15.43
2019-03-23T09:13:22.497Z,17.73
2019-03-23T09:15:50.806Z,16.80
2019-03-23T09:18:19.477Z,17.43
2019-03-23T09:20:47.706Z,17.10
2019-03-23T09:23:15.913Z,16.90
2019-03-23T09:25:45.679Z,17.30
2019-03-23T09:28:14.084Z,16.03
2019-03-23T09:30:42.277Z,17.10
2019-03-23T09:33:10.551Z,17.23
2019-03-23T09:35:39.480Z,16.30
2019-03-23T09:38:08.017Z,16.70
2019-03-23T09:40:36.283Z,15.10
2019-03-23T09:43:04.472Z,17.10
2019-03-23T09:45:33.587Z,15.67
2019-03-23T09:48:01.859Z,16.30
2019-03-23T09:50:30.128Z,15.90
2019-03-23T09:52:58.363Z,15.13
2019-03-23T09:55:28.592Z,15.53
2019-03-23T09:57:56.570Z,15.77
2019-03-23T10:00:24.877Z,16.90
2019-03-23T10:02:53.221Z,16.10
2019-03-23T10:05:22.856Z,16.03
2019-03-23T10:07:51.167Z,17.10
2019-03-23T10:10:22.099Z,16.67
2019-03-23T10:12:50.175Z,16.53
2019-03-23T10:15:18.865Z,16.23
2019-03-23T10:17:54.080Z,17.20
2019-03-23T10:20:22.830Z,16.00
2019-03-23T10:22:51.354Z,14.83
2019-03-23T10:25:20.742Z,16.03
2019-03-23T10:27:49.265Z,15.13
2019-03-23T10:30:18.136Z,13.83
2019-03-23T10:32:46.706Z,15.77
2019-03-23T10:35:15.902Z,15.60
2019-03-23T10:37:44.517Z,16.97
2019-03-23T10:40:13.341Z,17.17
2019-03-23T10:42:43.369Z,15.60
2019-03-23T10:45:12.261Z,18.27
2019-03-23T10:47:41.061Z,17.70
2019-03-23T10:50:09.999Z,16.30
2019-03-23T10:52:39.069Z,17.63
2019-03-23T10:55:07.818Z,16.87
2019-03-23T10:57:38.544Z,15.60
2019-03-23T11:00:08.467Z,16.43
2019-03-23T11:02:37.444Z,15.70
2019-03-23T11:05:06.584Z,17.47
2019-03-23T11:07:35.261Z,14.73
2019-03-23T11:10:03.948Z,15.60
2019-03-23T11:12:32.887Z,15.37
2019-03-23T11:15:01.643Z,15.43
2019-03-23T11:17:30.147Z,15.63
2019-03-23T11:19:59.102Z,16.50
2019-03-23T11:22:27.775Z,17.07
2019-03-23T11:24:56.474Z,14.80
2019-03-23T11:27:25.022Z,15.47
2019-03-23T11:29:53.588Z,16.27
2019-03-23T11:32:22.338Z,16.03
2019-03-23T11:34:50.974Z,16.27
2019-03-23T11:37:20.221Z,16.00
2019-03-23T11:39:48.858Z,15.10
2019-03-23T11:42:18.169Z,16.97
2019-03-23T11:44:46.991Z,14.50
2019-03-23T11:47:15.703Z,14.63
2019-03-23T11:49:44.375Z,15.27
2019-03-23T11:52:13.221Z,14.57
2019-03-23T11:54:42.526Z,14.47
2019-03-23T11:57:11.577Z,13.90
2019-03-23T11:59:41.136Z,14.80
2019-03-23T12:02:09.689Z,14.10
2019-03-23T12:04:38.504Z,13.80
2019-03-23T12:07:07.217Z,15.27
2019-03-23T12:09:35.932Z,15.17
2019-03-23T12:12:04.612Z,16.13
2019-03-23T12:14:34.145Z,15.47
2019-03-23T12:17:02.782Z,15.13
2019-03-23T12:19:31.420Z,16.80
2019-03-23T12:22:00.104Z,16.50
2019-03-23T12:24:28.959Z,15.57
2019-03-23T12:26:58.506Z,15.47
2019-03-23T12:29:27.623Z,15.43
2019-03-23T12:31:56.504Z,15.10
2019-03-23T12:34:25.578Z,16.47
2019-03-23T12:36:54.743Z,15.83
2019-03-23T12:39:23.100Z,15.27
2019-03-23T12:41:51.808Z,14.90
2019-03-23T12:44:20.132Z,14.97
2019-03-23T12:46:48.698Z,16.50
2019-03-23T12:49:16.906Z,16.93
2019-03-23T12:51:45.343Z,17.03
2019-03-23T12:54:13.978Z,14.50
2019-03-23T12:56:43.267Z,15.30
2019-03-23T12:59:11.572Z,16.07
2019-03-23T13:01:39.861Z,15.83
2019-03-23T13:04:09.367Z,15.37
2019-03-23T13:06:37.695Z,14.73
2019-03-23T13:09:07.221Z,15.27
2019-03-23T13:11:36.216Z,15.00
2019-03-23T13:14:04.609Z,13.47
2019-03-23T13:16:32.885Z,15.60
2019-03-23T13:19:01.203Z,15.20
2019-03-23T13:21:29.491Z,15.70
2019-03-23T13:23:57.763Z,14.33
2019-03-23T13:26:26.166Z,15.23
2019-03-23T13:28:55.804Z,14.90
2019-03-23T13:31:24.135Z,14.50
2019-03-23T13:33:52.317Z,14.00
2019-03-23T13:36:20.917Z,14.43
2019-03-23T13:38:49.180Z,13.87
2019-03-23T13:41:17.455Z,14.53
2019-03-23T13:43:45.733Z,15.20
2019-03-23T13:46:14.017Z,13.90
2019-03-23T13:48:42.421Z,13.97
2019-03-23T13:51:10.839Z,13.80
2019-03-23T13:53:39.043Z,13.90
2019-03-23T13:56:07.332Z,13.33
2019-03-23T13:58:35.595Z,12.63
2019-03-23T14:01:03.848Z,12.30
2019-03-23T14:03:32.149Z,12.57
2019-03-23T14:06:01.358Z,12.73
2019-03-23T14:08:29.641Z,13.20
2019-03-23T14:10:57.925Z,12.33
2019-03-23T14:13:27.787Z,13.40
2019-03-23T14:15:56.261Z,12.60
2019-03-23T14:18:24.471Z,12.43
2019-03-23T14:20:52.750Z,12.70
2019-03-23T14:23:21.067Z,11.57
2019-03-23T14:25:49.382Z,13.90
2019-03-23T14:28:17.604Z,11.90
2019-03-23T14:30:45.853Z,12.97
2019-03-23T14:33:14.119Z,12.37
2019-03-23T14:35:42.411Z,12.60
2019-03-23T14:38:10.707Z,11.80
2019-03-23T14:40:38.984Z,12.03
2019-03-23T14:43:07.209Z,12.60
2019-03-23T14:45:36.993Z,12.40
2019-03-23T14:48:05.445Z,11.93
2019-03-23T14:50:33.722Z,12.17
2019-03-23T14:53:01.986Z,13.07
2019-03-23T14:55:30.262Z,12.40
2019-03-23T14:57:59.110Z,12.30
2019-03-23T15:00:31.076Z,12.20
2019-03-23T15:02:59.474Z,12.40
2019-03-23T15:05:27.749Z,13.70
2019-03-23T15:07:56.323Z,12.00
2019-03-23T15:10:24.600Z,13.30
2019-03-23T15:12:52.809Z,11.53
2019-03-23T15:15:21.080Z,12.30
2019-03-23T15:17:49.552Z,14.70
2019-03-23T15:20:17.832Z,15.83
2019-03-23T15:22:46.110Z,13.83
2019-03-23T15:25:14.397Z,13.17
2019-03-23T15:27:42.667Z,12.30
2019-03-23T15:30:10.923Z,12.97
2019-03-23T15:32:39.217Z,13.10
2019-03-23T15:35:08.652Z,15.10
2019-03-23T15:37:37.030Z,12.83
2019-03-23T15:40:05.563Z,13.23
2019-03-23T15:42:34.467Z,13.10
2019-03-23T15:45:03.398Z,14.07
2019-03-23T15:47:32.974Z,13.07
2019-03-23T15:50:01.298Z,13.63
2019-03-23T15:52:29.630Z,12.40
2019-03-23T15:54:57.889Z,13.33
2019-03-23T15:57:26.197Z,14.37
2019-03-23T15:59:56.502Z,12.97
2019-03-23T16:02:24.798Z,13.37
2019-03-23T16:04:52.987Z,12.73
2019-03-23T16:07:29.218Z,12.10
2019-03-23T16:09:51.540Z,13.20
2019-03-23T16:12:19.718Z,12.30
2019-03-23T16:14:48.032Z,12.40
2019-03-23T16:17:16.199Z,13.00
2019-03-23T16:19:44.469Z,13.60
2019-03-23T16:22:12.812Z,12.53
2019-03-23T16:24:41.124Z,12.90
2019-03-23T16:27:09.387Z,12.10
2019-03-23T16:29:37.686Z,13.20
2019-03-23T16:32:05.964Z,12.80
2019-03-23T16:34:34.317Z,14.07
2019-03-23T16:37:02.892Z,13.97
2019-03-23T16:39:31.176Z,12.90
2019-03-23T16:41:59.442Z,13.37
2019-03-23T16:44:27.728Z,12.43
2019-03-23T16:46:56.120Z,13.67
2019-03-23T16:49:24.385Z,14.07
2019-03-23T16:51:52.651Z,12.10
2019-03-23T16:54:20.942Z,11.90
2019-03-23T16:56:49.223Z,11.40
2019-03-23T16:59:17.510Z,11.40
2019-03-23T17:01:45.797Z,11.60
2019-03-23T17:04:14.036Z,11.87
2019-03-23T17:06:46.223Z,10.90
2019-03-23T17:09:12.235Z,12.20
2019-03-23T17:11:40.497Z,11.30
2019-03-23T17:14:08.806Z,11.80
2019-03-23T17:16:37.138Z,11.80
2019-03-23T17:19:05.550Z,11.70
2019-03-23T17:21:33.819Z,11.60
2019-03-23T17:24:02.078Z,14.70
2019-03-23T17:26:30.364Z,15.70
2019-03-23T17:28:58.732Z,19.00
2019-03-23T17:31:27.377Z,12.00
2019-03-23T17:33:55.852Z,12.47
2019-03-23T17:36:24.185Z,12.57
2019-03-23T17:38:52.932Z,11.57
2019-03-23T17:41:21.139Z,13.13
2019-03-23T17:43:49.421Z,12.13
2019-03-23T17:46:17.605Z,11.90
2019-03-23T17:48:45.857Z,12.93
2019-03-23T17:51:14.066Z,11.83
2019-03-23T17:53:42.335Z,13.87
2019-03-23T17:56:10.576Z,13.10
2019-03-23T17:58:38.776Z,13.33
2019-03-23T18:01:07.092Z,11.43
2019-03-23T18:03:35.519Z,12.77
2019-03-23T18:06:03.699Z,10.90
2019-03-23T18:08:32.336Z,11.43
2019-03-23T18:11:00.663Z,12.50
2019-03-23T18:13:28.834Z,10.90
2019-03-23T18:15:57.111Z,11.40
2019-03-23T18:18:25.381Z,14.80
2019-03-23T18:20:53.753Z,18.30
2019-03-23T18:23:22.089Z,16.60
2019-03-23T18:25:50.498Z,25.00
2019-03-23T18:28:18.717Z,29.57
2019-03-23T18:30:47.208Z,16.70
2019-03-23T18:33:15.449Z,55.80
2019-03-23T18:35:43.724Z,60.40
2019-03-23T18:38:12.012Z,31.20
2019-03-23T18:40:40.281Z,25.87
2019-03-23T18:43:08.938Z,18.57
2019-03-23T18:45:37.399Z,14.60
2019-03-23T18:48:06.085Z,12.67
2019-03-23T18:50:34.596Z,10.63
2019-03-23T18:53:02.778Z,11.20
2019-03-23T18:55:31.943Z,11.60
2019-03-23T18:58:00.282Z,9.77
2019-03-23T19:00:38.405Z,12.73
2019-03-23T19:03:06.754Z,56.30
2019-03-23T19:05:35.146Z,24.53
2019-03-23T19:08:03.409Z,26.53
2019-03-23T19:10:31.737Z,12.70
2019-03-23T19:13:01.160Z,10.37
2019-03-23T19:15:29.909Z,11.20
2019-03-23T19:17:58.190Z,11.03
2019-03-23T19:20:26.526Z,11.33
2019-03-23T19:22:54.900Z,11.20
2019-03-23T19:25:23.184Z,11.33
2019-03-23T19:27:52.061Z,11.00
2019-03-23T19:30:20.499Z,10.33
2019-03-23T19:32:48.964Z,11.47
2019-03-23T19:35:17.228Z,10.60
2019-03-23T19:37:45.479Z,10.83
2019-03-23T19:40:13.886Z,10.20
2019-03-23T19:42:42.161Z,11.83
2019-03-23T19:45:11.535Z,12.73
2019-03-23T19:47:40.083Z,13.00
2019-03-23T19:50:08.417Z,18.00
2019-03-23T19:52:36.828Z,15.20
2019-03-23T19:55:05.205Z,15.10
2019-03-23T19:57:33.460Z,17.10
2019-03-23T20:00:02.273Z,16.23
2019-03-23T20:02:30.525Z,16.13
2019-03-23T20:04:58.763Z,15.23
2019-03-23T20:07:33.129Z,13.87
2019-03-23T20:09:56.970Z,15.97
2019-03-23T20:12:25.156Z,17.00
2019-03-23T20:14:53.455Z,14.17
2019-03-23T20:17:21.714Z,15.07
2019-03-23T20:19:49.978Z,15.37
2019-03-23T20:22:18.266Z,16.03
2019-03-23T20:24:46.556Z,18.60
2019-03-23T20:27:14.820Z,17.00
2019-03-23T20:29:43.088Z,15.90
2019-03-23T20:32:11.451Z,16.17
2019-03-23T20:34:39.729Z,15.50
2019-03-23T20:37:08.485Z,15.70
2019-03-23T20:39:36.905Z,15.33
2019-03-23T20:42:05.191Z,16.03
2019-03-23T20:44:33.442Z,15.70
2019-03-23T20:47:01.735Z,15.53
2019-03-23T20:49:30.046Z,16.00
2019-03-23T20:51:58.390Z,15.80
2019-03-23T20:54:27.068Z,16.00
2019-03-23T20:56:55.263Z,15.03
2019-03-23T20:59:23.528Z,15.23
2019-03-23T21:01:51.868Z,16.57
2019-03-23T21:04:20.125Z,17.07
2019-03-23T21:06:48.728Z,15.97
2019-03-23T21:09:16.917Z,16.00
2019-03-23T21:11:45.223Z,16.00
2019-03-23T21:14:20.083Z,16.50
2019-03-23T21:16:43.388Z,17.17
2019-03-23T21:19:11.971Z,15.60
2019-03-23T21:21:40.171Z,15.90
2019-03-23T21:24:08.448Z,16.10
2019-03-23T21:26:36.739Z,17.23
2019-03-23T21:29:05.093Z,15.80
2019-03-23T21:31:33.505Z,16.47
2019-03-23T21:34:01.741Z,15.90
2019-03-23T21:36:30.043Z,17.80
2019-03-23T21:38:58.276Z,15.80
2019-03-23T21:41:26.486Z,15.90
2019-03-23T21:43:55.058Z,17.50
2019-03-23T21:46:23.326Z,13.70
2019-03-23T21:48:52.271Z,16.10
2019-03-23T21:51:20.478Z,13.23
2019-03-23T21:53:48.653Z,13.20
2019-03-23T21:56:16.850Z,16.10
2019-03-23T21:58:45.146Z,15.53
2019-03-23T22:01:13.410Z,17.17
2019-03-23T22:03:41.702Z,17.30
2019-03-23T22:06:09.944Z,25.60
2019-03-23T22:08:38.241Z,23.00
2019-03-23T22:11:06.522Z,19.93
2019-03-23T22:13:34.792Z,13.00
2019-03-23T22:16:05.079Z,12.03
2019-03-23T22:18:32.966Z,12.20
2019-03-23T22:21:01.159Z,13.63
2019-03-23T22:23:29.677Z,19.30
2019-03-23T22:25:57.912Z,18.90
2019-03-23T22:28:26.185Z,17.60
2019-03-23T22:30:54.441Z,19.63
2019-03-23T22:33:22.741Z,16.07
2019-03-23T22:35:51.007Z,16.20
2019-03-23T22:38:19.315Z,15.97
2019-03-23T22:40:47.552Z,15.37
2019-03-23T22:43:15.756Z,16.60
2019-03-23T22:45:44.133Z,16.67
2019-03-23T22:48:12.408Z,16.40
2019-03-23T22:50:40.819Z,17.00
2019-03-23T22:53:09.054Z,16.40
2019-03-23T22:55:37.445Z,14.93
2019-03-23T22:58:05.711Z,15.03
2019-03-23T23:00:44.262Z,15.17
2019-03-23T23:03:12.682Z,15.90
2019-03-23T23:05:41.001Z,14.60
2019-03-23T23:08:09.261Z,15.30
2019-03-23T23:10:40.692Z,15.43
2019-03-23T23:13:08.980Z,15.50
2019-03-23T23:15:37.259Z,16.20
2019-03-23T23:18:05.551Z,13.20
2019-03-23T23:20:33.838Z,13.27
2019-03-23T23:23:02.094Z,12.13
2019-03-23T23:25:30.365Z,12.43
2019-03-23T23:27:58.654Z,18.70
2019-03-23T23:30:26.927Z,25.77
2019-03-23T23:32:55.213Z,23.53
2019-03-23T23:35:23.487Z,38.00
2019-03-23T23:37:51.733Z,24.03
2019-03-23T23:40:19.993Z,22.67
2019-03-23T23:42:48.312Z,22.17
2019-03-23T23:45:16.881Z,15.33
2019-03-23T23:47:45.165Z,14.13
2019-03-23T23:50:13.436Z,14.70
2019-03-23T23:52:41.743Z,12.60
2019-03-23T23:55:09.992Z,13.67
2019-03-23T23:57:38.240Z,13.10
